sensor_id;sensor_type;location;lat;lon;timestamp;pressure;altitude;pressure_sealevel;temperature;humidity
46199;BME280;31928;52.104;10.030;2022-08-19T05:39:37;100165.78;;;24.45;52.99
46199;BME280;31928;52.104;10.030;2022-08-19T05:42:07;100160.09;;;24.41;52.86
46199;BME280;31928;52.104;10.030;2022-08-19T05:44:37;100158.00;;;24.38;52.46
46199;BME280;31928;52.104;10.030;2022-08-19T05:47:06;100162.94;;;24.36;52.11
46199;BME280;31928;52.104;10.030;2022-08-19T05:49:33;100160.31;;;24.31;52.27
46199;BME280;31928;52.104;10.030;2022-08-19T05:52:09;100166.81;;;24.35;51.92
46199;BME280;31928;52.104;10.030;2022-08-19T05:54:39;100169.88;;;24.20;52.44
46199;BME280;31928;52.104;10.030;2022-08-19T05:57:09;100163.69;;;24.15;53.09
46199;BME280;31928;52.104;10.030;2022-08-19T05:59:38;100175.84;;;24.09;53.09
46199;BME280;31928;52.104;10.030;2022-08-19T06:02:06;100184.47;;;24.03;53.17
46199;BME280;31928;52.104;10.030;2022-08-19T06:04:33;100186.00;;;23.95;53.03
46199;BME280;31928;52.104;10.030;2022-08-19T06:07:00;100181.44;;;23.91;53.17
46199;BME280;31928;52.104;10.030;2022-08-19T06:09:39;100177.19;;;23.85;53.64
46199;BME280;31928;52.104;10.030;2022-08-19T06:12:06;100174.03;;;23.78;53.28
46199;BME280;31928;52.104;10.030;2022-08-19T06:14:34;100166.41;;;23.75;53.40
46199;BME280;31928;52.104;10.030;2022-08-19T06:17:07;100178.59;;;23.69;53.40
46199;BME280;31928;52.104;10.030;2022-08-19T06:19:33;100178.66;;;23.64;53.92
46199;BME280;31928;52.104;10.030;2022-08-19T06:22:06;100187.47;;;23.61;53.95
46199;BME280;31928;52.104;10.030;2022-08-19T06:24:34;100197.41;;;23.57;54.33
46199;BME280;31928;52.104;10.030;2022-08-19T06:27:02;100202.66;;;23.54;54.08
46199;BME280;31928;52.104;10.030;2022-08-19T06:29:32;100198.59;;;23.51;54.12
46199;BME280;31928;52.104;10.030;2022-08-19T06:32:00;100200.81;;;23.49;54.13
46199;BME280;31928;52.104;10.030;2022-08-19T06:34:31;100204.69;;;23.48;54.41
46199;BME280;31928;52.104;10.030;2022-08-19T06:37:00;100205.88;;;23.42;54.47
46199;BME280;31928;52.104;10.030;2022-08-19T06:39:32;100213.00;;;23.43;54.65
46199;BME280;31928;52.104;10.030;2022-08-19T06:42:00;100217.44;;;23.39;54.18
46199;BME280;31928;52.104;10.030;2022-08-19T06:44:30;100211.97;;;23.39;54.30
46199;BME280;31928;52.104;10.030;2022-08-19T06:47:09;100213.69;;;23.35;54.34
46199;BME280;31928;52.104;10.030;2022-08-19T06:49:40;100215.09;;;23.33;54.04
46199;BME280;31928;52.104;10.030;2022-08-19T06:52:07;100239.97;;;23.31;54.58
46199;BME280;31928;52.104;10.030;2022-08-19T06:54:39;100242.72;;;23.31;54.67
46199;BME280;31928;52.104;10.030;2022-08-19T06:57:22;100246.28;;;23.32;54.69
46199;BME280;31928;52.104;10.030;2022-08-19T06:59:48;100239.72;;;23.33;55.23
46199;BME280;31928;52.104;10.030;2022-08-19T07:02:15;100239.72;;;23.33;54.18
46199;BME280;31928;52.104;10.030;2022-08-19T07:05:01;100233.94;;;23.34;54.24
46199;BME280;31928;52.104;10.030;2022-08-19T07:07:32;100255.31;;;23.32;53.62
46199;BME280;31928;52.104;10.030;2022-08-19T07:09:58;100258.03;;;23.32;54.26
46199;BME280;31928;52.104;10.030;2022-08-19T07:12:31;100252.56;;;23.32;53.95
46199;BME280;31928;52.104;10.030;2022-08-19T07:15:04;100266.25;;;23.32;54.22
46199;BME280;31928;52.104;10.030;2022-08-19T07:17:31;100263.81;;;23.31;54.15
46199;BME280;31928;52.104;10.030;2022-08-19T07:20:00;100263.50;;;23.32;54.41
46199;BME280;31928;52.104;10.030;2022-08-19T07:22:33;100267.06;;;23.33;54.43
46199;BME280;31928;52.104;10.030;2022-08-19T07:25:00;100270.91;;;23.32;53.74
46199;BME280;31928;52.104;10.030;2022-08-19T07:27:29;100274.97;;;23.34;54.14
46199;BME280;31928;52.104;10.030;2022-08-19T07:29:59;100281.47;;;23.38;54.42
46199;BME280;31928;52.104;10.030;2022-08-19T07:32:26;100280.06;;;23.41;54.02
46199;BME280;31928;52.104;10.030;2022-08-19T07:34:53;100292.03;;;23.45;54.40
46199;BME280;31928;52.104;10.030;2022-08-19T07:37:21;100297.75;;;23.48;53.88
46199;BME280;31928;52.104;10.030;2022-08-19T07:39:48;100301.22;;;23.54;54.10
46199;BME280;31928;52.104;10.030;2022-08-19T07:42:15;100301.44;;;23.57;53.18
46199;BME280;31928;52.104;10.030;2022-08-19T07:44:43;100307.94;;;23.61;53.06
46199;BME280;31928;52.104;10.030;2022-08-19T07:47:16;100308.97;;;23.65;52.90
46199;BME280;31928;52.104;10.030;2022-08-19T07:50:06;100296.81;;;23.71;52.57
46199;BME280;31928;52.104;10.030;2022-08-19T07:52:34;100294.59;;;23.73;52.61
46199;BME280;31928;52.104;10.030;2022-08-19T07:55:03;100297.25;;;23.78;52.86
46199;BME280;31928;52.104;10.030;2022-08-19T07:57:30;100307.00;;;23.84;52.66
46199;BME280;31928;52.104;10.030;2022-08-19T07:59:58;100309.66;;;23.89;52.42
46199;BME280;31928;52.104;10.030;2022-08-19T08:02:24;100310.09;;;23.96;52.58
46199;BME280;31928;52.104;10.030;2022-08-19T08:04:51;100314.88;;;24.04;51.46
46199;BME280;31928;52.104;10.030;2022-08-19T08:07:36;100309.78;;;24.11;51.84
46199;BME280;31928;52.104;10.030;2022-08-19T08:10:21;100309.13;;;24.19;51.37
46199;BME280;31928;52.104;10.030;2022-08-19T08:12:50;100307.66;;;24.21;50.94
46199;BME280;31928;52.104;10.030;2022-08-19T08:15:35;100308.91;;;24.28;51.52
46199;BME280;31928;52.104;10.030;2022-08-19T08:18:08;100298.38;;;24.35;51.16
46199;BME280;31928;52.104;10.030;2022-08-19T08:20:34;100302.63;;;24.41;50.47
46199;BME280;31928;52.104;10.030;2022-08-19T08:23:01;100304.69;;;24.49;50.19
46199;BME280;31928;52.104;10.030;2022-08-19T08:25:46;100309.47;;;24.57;50.25
46199;BME280;31928;52.104;10.030;2022-08-19T08:28:18;100308.13;;;24.68;50.55
46199;BME280;31928;52.104;10.030;2022-08-19T08:30:46;100313.88;;;24.80;50.08
46199;BME280;31928;52.104;10.030;2022-08-19T08:33:21;100313.06;;;24.93;49.90
46199;BME280;31928;52.104;10.030;2022-08-19T08:36:09;100303.91;;;24.97;49.56
46199;BME280;31928;52.104;10.030;2022-08-19T08:38:37;100319.66;;;25.05;48.57
46199;BME280;31928;52.104;10.030;2022-08-19T08:44:14;100321.25;;;25.20;48.52
46199;BME280;31928;52.104;10.030;2022-08-19T08:46:50;100322.88;;;25.21;49.01
46199;BME280;31928;52.104;10.030;2022-08-19T08:49:26;100316.16;;;25.27;48.99
46199;BME280;31928;52.104;10.030;2022-08-19T08:52:07;100311.88;;;25.34;48.80
46199;BME280;31928;52.104;10.030;2022-08-19T08:54:42;100315.75;;;25.33;48.58
46199;BME280;31928;52.104;10.030;2022-08-19T08:57:26;100322.53;;;25.36;nan
46199;BME280;31928;52.104;10.030;2022-08-19T08:59:57;100323.03;;;25.38;47.98
46199;BME280;31928;52.104;10.030;2022-08-19T09:02:26;100321.44;;;25.37;47.79
46199;BME280;31928;52.104;10.030;2022-08-19T09:04:54;100326.78;;;25.42;47.98
46199;BME280;31928;52.104;10.030;2022-08-19T09:08:06;100315.94;;;25.58;48.61
46199;BME280;31928;52.104;10.030;2022-08-19T09:10:52;100320.13;;;25.56;47.27
46199;BME280;31928;52.104;10.030;2022-08-19T09:15:59;100314.19;;;25.62;47.07
46199;BME280;31928;52.104;10.030;2022-08-19T09:21:07;100312.56;;;25.61;46.76
46199;BME280;31928;52.104;10.030;2022-08-19T09:23:36;100319.38;;;25.64;45.87
46199;BME280;31928;52.104;10.030;2022-08-19T09:26:11;100312.34;;;25.71;46.15
46199;BME280;31928;52.104;10.030;2022-08-19T09:28:43;100319.75;;;25.71;45.15
46199;BME280;31928;52.104;10.030;2022-08-19T09:31:16;100314.47;;;25.74;45.01
46199;BME280;31928;52.104;10.030;2022-08-19T09:33:43;100318.53;;;25.77;45.42
46199;BME280;31928;52.104;10.030;2022-08-19T09:36:13;100322.47;;;25.84;45.94
46199;BME280;31928;52.104;10.030;2022-08-19T09:38:55;100321.81;;;25.87;44.86
46199;BME280;31928;52.104;10.030;2022-08-19T09:41:24;100318.94;;;25.92;45.38
46199;BME280;31928;52.104;10.030;2022-08-19T09:43:55;100325.78;;;26.03;46.11
46199;BME280;31928;52.104;10.030;2022-08-19T09:46:25;100317.28;;;26.13;43.98
46199;BME280;31928;52.104;10.030;2022-08-19T09:48:52;100318.00;;;26.27;44.11
46199;BME280;31928;52.104;10.030;2022-08-19T09:51:24;100313.41;;;26.44;44.42
46199;BME280;31928;52.104;10.030;2022-08-19T09:53:53;100315.53;;;26.56;42.20
46199;BME280;31928;52.104;10.030;2022-08-19T09:56:23;100314.00;;;26.71;41.80
46199;BME280;31928;52.104;10.030;2022-08-19T09:58:50;100315.81;;;26.84;41.17
46199;BME280;31928;52.104;10.030;2022-08-19T10:01:22;100322.03;;;26.98;40.91
46199;BME280;31928;52.104;10.030;2022-08-19T10:03:53;100310.88;;;27.12;41.18
46199;BME280;31928;52.104;10.030;2022-08-19T10:06:23;100305.50;;;27.24;41.06
46199;BME280;31928;52.104;10.030;2022-08-19T10:09:10;100294.81;;;27.39;40.63
46199;BME280;31928;52.104;10.030;2022-08-19T10:11:40;100303.41;;;27.54;41.36
46199;BME280;31928;52.104;10.030;2022-08-19T10:14:18;100295.00;;;27.68;40.28
46199;BME280;31928;52.104;10.030;2022-08-19T10:16:49;100295.16;;;27.80;39.95
46199;BME280;31928;52.104;10.030;2022-08-19T10:19:15;100298.97;;;27.95;39.20
46199;BME280;31928;52.104;10.030;2022-08-19T10:21:52;100292.16;;;28.10;39.76
46199;BME280;31928;52.104;10.030;2022-08-19T10:24:19;100286.78;;;28.22;40.00
46199;BME280;31928;52.104;10.030;2022-08-19T10:26:47;100271.47;;;28.33;38.73
46199;BME280;31928;52.104;10.030;2022-08-19T10:29:24;100279.03;;;28.44;38.37
46199;BME280;31928;52.104;10.030;2022-08-19T10:32:03;100277.34;;;28.60;39.14
46199;BME280;31928;52.104;10.030;2022-08-19T10:34:38;100276.22;;;28.90;42.69
46199;BME280;31928;52.104;10.030;2022-08-19T10:37:13;100272.22;;;28.79;38.26
46199;BME280;31928;52.104;10.030;2022-08-19T10:39:45;100271.38;;;28.87;38.77
46199;BME280;31928;52.104;10.030;2022-08-19T10:42:14;100271.63;;;28.94;38.33
46199;BME280;31928;52.104;10.030;2022-08-19T10:44:42;100272.03;;;29.04;37.73
46199;BME280;31928;52.104;10.030;2022-08-19T10:47:09;100265.78;;;29.15;37.76
46199;BME280;31928;52.104;10.030;2022-08-19T10:49:50;100257.22;;;29.29;37.21
46199;BME280;31928;52.104;10.030;2022-08-19T10:52:38;100257.66;;;29.39;35.77
46199;BME280;31928;52.104;10.030;2022-08-19T10:55:14;100250.56;;;29.50;36.23
46199;BME280;31928;52.104;10.030;2022-08-19T10:58:00;100247.81;;;29.62;35.71
46199;BME280;31928;52.104;10.030;2022-08-19T11:00:28;100240.25;;;29.71;35.83
46199;BME280;31928;52.104;10.030;2022-08-19T11:02:55;100234.78;;;29.83;34.99
46199;BME280;31928;52.104;10.030;2022-08-19T11:05:22;100232.06;;;29.95;35.02
46199;BME280;31928;52.104;10.030;2022-08-19T11:07:50;100231.72;;;30.08;34.25
46199;BME280;31928;52.104;10.030;2022-08-19T11:10:19;100228.16;;;30.20;34.40
46199;BME280;31928;52.104;10.030;2022-08-19T11:12:48;100225.41;;;30.32;33.67
46199;BME280;31928;52.104;10.030;2022-08-19T11:15:15;100230.63;;;30.45;33.65
46199;BME280;31928;52.104;10.030;2022-08-19T11:17:42;100230.94;;;30.55;33.07
46199;BME280;31928;52.104;10.030;2022-08-19T11:20:14;100230.47;;;30.65;34.39
46199;BME280;31928;52.104;10.030;2022-08-19T11:22:41;100224.72;;;30.70;32.57
46199;BME280;31928;52.104;10.030;2022-08-19T11:25:10;100231.59;;;30.76;32.72
46199;BME280;31928;52.104;10.030;2022-08-19T11:27:38;100236.91;;;30.81;32.37
46199;BME280;31928;52.104;10.030;2022-08-19T11:30:08;100232.75;;;30.87;32.55
46199;BME280;31928;52.104;10.030;2022-08-19T11:32:39;100225.16;;;30.96;32.26
46199;BME280;31928;52.104;10.030;2022-08-19T11:35:12;100216.25;;;31.02;32.40
46199;BME280;31928;52.104;10.030;2022-08-19T11:37:39;100205.00;;;31.11;31.38
46199;BME280;31928;52.104;10.030;2022-08-19T11:40:07;100211.19;;;31.20;31.14
46199;BME280;31928;52.104;10.030;2022-08-19T11:42:34;100202.38;;;31.30;30.68
46199;BME280;31928;52.104;10.030;2022-08-19T11:45:20;100189.19;;;31.39;30.29
46199;BME280;31928;52.104;10.030;2022-08-19T11:47:47;100196.53;;;31.47;31.07
46199;BME280;31928;52.104;10.030;2022-08-19T11:50:15;100195.94;;;31.53;30.79
46199;BME280;31928;52.104;10.030;2022-08-19T11:52:42;100196.94;;;31.61;30.09
46199;BME280;31928;52.104;10.030;2022-08-19T11:55:10;100204.28;;;31.68;29.84
46199;BME280;31928;52.104;10.030;2022-08-19T11:57:38;100202.88;;;31.74;28.85
46199;BME280;31928;52.104;10.030;2022-08-19T12:00:07;100205.38;;;31.79;28.58
46199;BME280;31928;52.104;10.030;2022-08-19T12:02:35;100205.13;;;31.84;28.35
46199;BME280;31928;52.104;10.030;2022-08-19T12:05:02;100199.28;;;31.89;29.08
46199;BME280;31928;52.104;10.030;2022-08-19T12:07:33;100199.50;;;31.96;29.85
46199;BME280;31928;52.104;10.030;2022-08-19T12:10:00;100190.22;;;32.04;29.87
46199;BME280;31928;52.104;10.030;2022-08-19T12:12:28;100193.19;;;32.11;29.66
46199;BME280;31928;52.104;10.030;2022-08-19T12:14:55;100185.00;;;32.18;29.34
46199;BME280;31928;52.104;10.030;2022-08-19T12:17:26;100193.50;;;32.25;29.60
46199;BME280;31928;52.104;10.030;2022-08-19T12:19:53;100193.31;;;32.33;28.95
46199;BME280;31928;52.104;10.030;2022-08-19T12:22:20;100195.56;;;32.43;29.55
46199;BME280;31928;52.104;10.030;2022-08-19T12:24:48;100188.66;;;32.53;29.29
46199;BME280;31928;52.104;10.030;2022-08-19T12:27:17;100188.88;;;32.63;29.38
46199;BME280;31928;52.104;10.030;2022-08-19T12:30:02;100184.03;;;32.76;28.62
46199;BME280;31928;52.104;10.030;2022-08-19T12:32:29;100186.56;;;32.84;28.36
46199;BME280;31928;52.104;10.030;2022-08-19T12:34:55;100193.19;;;32.95;28.46
46199;BME280;31928;52.104;10.030;2022-08-19T12:37:22;100190.19;;;33.03;28.31
46199;BME280;31928;52.104;10.030;2022-08-19T12:39:49;100195.09;;;33.10;27.96
46199;BME280;31928;52.104;10.030;2022-08-19T12:42:15;100186.56;;;33.18;27.63
46199;BME280;31928;52.104;10.030;2022-08-19T12:44:43;100197.09;;;33.28;28.31
46199;BME280;31928;52.104;10.030;2022-08-19T12:47:12;100194.91;;;33.37;28.23
46199;BME280;31928;52.104;10.030;2022-08-19T12:49:41;100189.91;;;33.46;27.45
46199;BME280;31928;52.104;10.030;2022-08-19T12:52:22;100176.59;;;33.55;27.40
46199;BME280;31928;52.104;10.030;2022-08-19T12:54:50;100181.91;;;33.63;27.52
46199;BME280;31928;52.104;10.030;2022-08-19T12:57:21;100175.66;;;33.70;27.50
46199;BME280;31928;52.104;10.030;2022-08-19T12:59:56;100179.00;;;33.79;27.95
46199;BME280;31928;52.104;10.030;2022-08-19T13:02:23;100180.75;;;33.87;27.54
46199;BME280;31928;52.104;10.030;2022-08-19T13:04:49;100173.78;;;33.96;26.07
46199;BME280;31928;52.104;10.030;2022-08-19T13:07:16;100185.41;;;34.02;26.65
46199;BME280;31928;52.104;10.030;2022-08-19T13:09:42;100171.13;;;34.03;26.08
46199;BME280;31928;52.104;10.030;2022-08-19T13:12:09;100173.97;;;34.07;26.35
46199;BME280;31928;52.104;10.030;2022-08-19T13:14:39;100174.03;;;34.10;26.06
46199;BME280;31928;52.104;10.030;2022-08-19T13:17:07;100176.44;;;34.12;25.45
46199;BME280;31928;52.104;10.030;2022-08-19T13:19:36;100174.06;;;34.13;25.93
46199;BME280;31928;52.104;10.030;2022-08-19T13:22:03;100162.16;;;34.13;25.39
46199;BME280;31928;52.104;10.030;2022-08-19T13:24:37;100170.13;;;34.14;25.53
46199;BME280;31928;52.104;10.030;2022-08-19T13:27:08;100168.50;;;34.13;25.41
46199;BME280;31928;52.104;10.030;2022-08-19T13:29:34;100156.59;;;34.13;25.67
46199;BME280;31928;52.104;10.030;2022-08-19T13:32:20;100181.19;;;34.11;25.41
46199;BME280;31928;52.104;10.030;2022-08-19T13:35:07;100178.78;;;34.10;25.36
46199;BME280;31928;52.104;10.030;2022-08-19T13:37:36;100170.44;;;34.10;25.87
46199;BME280;31928;52.104;10.030;2022-08-19T13:40:17;100178.16;;;34.19;26.89
46199;BME280;31928;52.104;10.030;2022-08-19T13:42:46;100183.34;;;34.47;29.74
46199;BME280;31928;52.104;10.030;2022-08-19T13:45:16;100175.06;;;34.24;25.83
46199;BME280;31928;52.104;10.030;2022-08-19T13:47:46;100171.13;;;34.25;25.65
46199;BME280;31928;52.104;10.030;2022-08-19T13:50:16;100173.53;;;34.30;26.01
46199;BME280;31928;52.104;10.030;2022-08-19T13:52:43;100168.03;;;34.34;25.49
46199;BME280;31928;52.104;10.030;2022-08-19T13:55:11;100175.28;;;34.38;25.66
46199;BME280;31928;52.104;10.030;2022-08-19T13:57:38;100170.56;;;34.42;25.07
46199;BME280;31928;52.104;10.030;2022-08-19T14:00:15;100177.09;;;34.50;25.55
46199;BME280;31928;52.104;10.030;2022-08-19T14:02:45;100181.06;;;34.52;24.44
46199;BME280;31928;52.104;10.030;2022-08-19T14:05:15;100179.59;;;34.58;25.04
46199;BME280;31928;52.104;10.030;2022-08-19T14:07:42;100174.00;;;34.58;24.59
46199;BME280;31928;52.104;10.030;2022-08-19T14:10:10;100177.25;;;34.60;24.76
46199;BME280;31928;52.104;10.030;2022-08-19T14:12:37;100160.94;;;34.62;24.33
46199;BME280;31928;52.104;10.030;2022-08-19T14:15:06;100164.16;;;34.64;25.16
46199;BME280;31928;52.104;10.030;2022-08-19T14:17:33;100166.94;;;34.64;24.63
46199;BME280;31928;52.104;10.030;2022-08-19T14:20:03;100163.41;;;34.67;24.90
46199;BME280;31928;52.104;10.030;2022-08-19T14:22:39;100161.84;;;34.70;24.88
46199;BME280;31928;52.104;10.030;2022-08-19T14:25:13;100158.34;;;34.76;25.41
46199;BME280;31928;52.104;10.030;2022-08-19T14:27:41;100160.69;;;34.74;24.74
46199;BME280;31928;52.104;10.030;2022-08-19T14:30:10;100162.38;;;34.78;24.25
46199;BME280;31928;52.104;10.030;2022-08-19T14:32:37;100156.03;;;34.81;23.59
46199;BME280;31928;52.104;10.030;2022-08-19T14:35:04;100162.81;;;34.84;24.01
46199;BME280;31928;52.104;10.030;2022-08-19T14:37:33;100160.09;;;34.87;23.52
46199;BME280;31928;52.104;10.030;2022-08-19T14:40:11;100167.28;;;34.88;23.76
46199;BME280;31928;52.104;10.030;2022-08-19T14:42:38;100171.25;;;34.87;23.58
46199;BME280;31928;52.104;10.030;2022-08-19T14:45:05;100156.53;;;34.87;23.94
46199;BME280;31928;52.104;10.030;2022-08-19T14:47:32;100157.69;;;34.86;23.98
46199;BME280;31928;52.104;10.030;2022-08-19T14:49:59;100152.06;;;34.82;24.15
46199;BME280;31928;52.104;10.030;2022-08-19T14:52:30;100149.59;;;34.77;24.61
46199;BME280;31928;52.104;10.030;2022-08-19T14:54:57;100151.13;;;34.72;23.82
46199;BME280;31928;52.104;10.030;2022-08-19T14:57:23;100150.63;;;34.63;24.50
46199;BME280;31928;52.104;10.030;2022-08-19T14:59:50;100140.50;;;34.51;24.90
46199;BME280;31928;52.104;10.030;2022-08-19T15:02:16;100147.47;;;34.42;24.88
46199;BME280;31928;52.104;10.030;2022-08-19T15:05:00;100147.78;;;34.37;24.81
46199;BME280;31928;52.104;10.030;2022-08-19T15:07:26;100148.94;;;34.32;24.90
46199;BME280;31928;52.104;10.030;2022-08-19T15:09:55;100149.69;;;34.29;24.84
46199;BME280;31928;52.104;10.030;2022-08-19T15:12:22;100151.66;;;34.29;24.93
46199;BME280;31928;52.104;10.030;2022-08-19T15:14:50;100164.78;;;34.28;25.07
46199;BME280;31928;52.104;10.030;2022-08-19T15:17:21;100162.41;;;34.30;24.69
46199;BME280;31928;52.104;10.030;2022-08-19T15:20:08;100161.47;;;34.71;27.53
46199;BME280;31928;52.104;10.030;2022-08-19T15:22:36;100160.97;;;34.40;24.97
46199;BME280;31928;52.104;10.030;2022-08-19T15:25:04;100161.38;;;34.38;25.34
46199;BME280;31928;52.104;10.030;2022-08-19T15:27:31;100164.16;;;34.38;25.43
46199;BME280;31928;52.104;10.030;2022-08-19T15:29:58;100172.06;;;34.36;24.95
46199;BME280;31928;52.104;10.030;2022-08-19T15:32:27;100166.44;;;34.33;24.68
46199;BME280;31928;52.104;10.030;2022-08-19T15:34:54;100165.53;;;34.25;24.98
46199;BME280;31928;52.104;10.030;2022-08-19T15:37:21;100164.66;;;34.21;25.15
46199;BME280;31928;52.104;10.030;2022-08-19T15:39:49;100170.88;;;34.12;25.20
46199;BME280;31928;52.104;10.030;2022-08-19T15:42:16;100157.22;;;34.03;25.57
46199;BME280;31928;52.104;10.030;2022-08-19T15:44:56;100156.34;;;33.99;26.16
46199;BME280;31928;52.104;10.030;2022-08-19T15:47:28;100165.03;;;33.98;26.02
46199;BME280;31928;52.104;10.030;2022-08-19T15:50:16;100159.31;;;34.10;26.62
46199;BME280;31928;52.104;10.030;2022-08-19T15:52:52;100160.00;;;34.03;26.16
46199;BME280;31928;52.104;10.030;2022-08-19T15:55:23;100155.97;;;34.01;26.04
46199;BME280;31928;52.104;10.030;2022-08-19T15:58:12;100145.28;;;34.03;26.74
46199;BME280;31928;52.104;10.030;2022-08-19T16:01:03;100145.13;;;33.96;26.49
46199;BME280;31928;52.104;10.030;2022-08-19T16:03:52;100148.16;;;33.87;25.93
46199;BME280;31928;52.104;10.030;2022-08-19T16:06:46;100145.88;;;33.93;26.07
46199;BME280;31928;52.104;10.030;2022-08-19T16:09:14;100152.88;;;33.83;25.32
46199;BME280;31928;52.104;10.030;2022-08-19T16:11:42;100147.31;;;33.83;25.09
46199;BME280;31928;52.104;10.030;2022-08-19T16:14:13;100150.47;;;33.82;25.34
46199;BME280;31928;52.104;10.030;2022-08-19T16:16:39;100137.28;;;33.79;25.07
46199;BME280;31928;52.104;10.030;2022-08-19T16:19:07;100151.94;;;33.76;25.40
46199;BME280;31928;52.104;10.030;2022-08-19T16:21:38;100152.25;;;33.71;24.93
46199;BME280;31928;52.104;10.030;2022-08-19T16:24:09;100164.91;;;33.68;25.43
46199;BME280;31928;52.104;10.030;2022-08-19T16:26:37;100161.94;;;33.58;25.41
46199;BME280;31928;52.104;10.030;2022-08-19T16:29:04;100159.06;;;33.51;24.99
46199;BME280;31928;52.104;10.030;2022-08-19T16:31:40;100155.28;;;33.44;25.23
46199;BME280;31928;52.104;10.030;2022-08-19T16:34:10;100153.56;;;33.36;25.59
46199;BME280;31928;52.104;10.030;2022-08-19T16:36:36;100149.84;;;33.28;25.21
46199;BME280;31928;52.104;10.030;2022-08-19T16:39:12;100151.44;;;33.29;25.89
46199;BME280;31928;52.104;10.030;2022-08-19T16:41:41;100162.28;;;33.15;25.99
46199;BME280;31928;52.104;10.030;2022-08-19T16:44:10;100158.19;;;33.09;26.27
46199;BME280;31928;52.104;10.030;2022-08-19T16:46:37;100160.81;;;33.02;26.29
46199;BME280;31928;52.104;10.030;2022-08-19T16:49:05;100155.16;;;32.99;26.34
46199;BME280;31928;52.104;10.030;2022-08-19T16:51:32;100146.75;;;32.95;26.69
46199;BME280;31928;52.104;10.030;2022-08-19T16:53:59;100150.25;;;32.92;26.27
46199;BME280;31928;52.104;10.030;2022-08-19T16:56:27;100137.09;;;32.89;26.44
46199;BME280;31928;52.104;10.030;2022-08-19T16:58:54;100143.00;;;32.88;26.46
46199;BME280;31928;52.104;10.030;2022-08-19T17:01:21;100126.00;;;32.89;26.84
46199;BME280;31928;52.104;10.030;2022-08-19T17:03:48;100132.78;;;32.92;26.25
46199;BME280;31928;52.104;10.030;2022-08-19T17:06:18;100134.38;;;32.93;26.19
46199;BME280;31928;52.104;10.030;2022-08-19T17:08:52;100132.94;;;32.99;26.65
46199;BME280;31928;52.104;10.030;2022-08-19T17:11:22;100135.19;;;32.93;26.24
46199;BME280;31928;52.104;10.030;2022-08-19T17:13:49;100142.22;;;32.88;26.58
46199;BME280;31928;52.104;10.030;2022-08-19T17:16:18;100130.22;;;32.84;26.29
46199;BME280;31928;52.104;10.030;2022-08-19T17:18:45;100125.31;;;32.77;26.52
46199;BME280;31928;52.104;10.030;2022-08-19T17:21:11;100122.03;;;32.72;26.17
46199;BME280;31928;52.104;10.030;2022-08-19T17:23:38;100132.97;;;32.65;26.60
46199;BME280;31928;52.104;10.030;2022-08-19T17:26:08;100131.22;;;32.57;26.60
46199;BME280;31928;52.104;10.030;2022-08-19T17:28:44;100123.44;;;32.47;26.81
46199;BME280;31928;52.104;10.030;2022-08-19T17:31:11;100126.06;;;32.40;27.04
46199;BME280;31928;52.104;10.030;2022-08-19T17:33:37;100129.84;;;32.32;27.10
46199;BME280;31928;52.104;10.030;2022-08-19T17:36:07;100132.00;;;32.23;26.97
46199;BME280;31928;52.104;10.030;2022-08-19T17:38:34;100135.78;;;32.15;27.16
46199;BME280;31928;52.104;10.030;2022-08-19T17:41:02;100143.13;;;32.08;27.37
46199;BME280;31928;52.104;10.030;2022-08-19T17:43:32;100142.16;;;32.00;27.81
46199;BME280;31928;52.104;10.030;2022-08-19T17:46:08;100137.56;;;31.92;28.13
46199;BME280;31928;52.104;10.030;2022-08-19T17:48:36;100133.00;;;31.84;28.11
46199;BME280;31928;52.104;10.030;2022-08-19T17:53:48;100140.50;;;31.68;28.23
46199;BME280;31928;52.104;10.030;2022-08-19T17:56:16;100144.25;;;31.61;33.69
46199;BME280;31928;52.104;10.030;2022-08-19T17:58:42;100148.44;;;31.55;34.13
46199;BME280;31928;52.104;10.030;2022-08-19T18:01:23;100138.09;;;31.52;34.92
46199;BME280;31928;52.104;10.030;2022-08-19T18:03:51;100144.34;;;31.49;34.81
46199;BME280;31928;52.104;10.030;2022-08-19T18:06:18;100141.00;;;31.43;34.01
46199;BME280;31928;52.104;10.030;2022-08-19T18:08:45;100145.31;;;31.41;34.15
46199;BME280;31928;52.104;10.030;2022-08-19T18:11:15;100154.31;;;31.38;33.59
46199;BME280;31928;52.104;10.030;2022-08-19T18:13:42;100145.44;;;31.32;34.27
46199;BME280;31928;52.104;10.030;2022-08-19T18:16:08;100145.34;;;31.29;34.27
46199;BME280;31928;52.104;10.030;2022-08-19T18:18:40;100153.28;;;31.30;34.19
46199;BME280;31928;52.104;10.030;2022-08-19T18:21:08;100151.84;;;31.21;35.28
46199;BME280;31928;52.104;10.030;2022-08-19T18:23:35;100147.72;;;31.15;34.26
46199;BME280;31928;52.104;10.030;2022-08-19T18:26:11;100151.22;;;31.12;34.81
46199;BME280;31928;52.104;10.030;2022-08-19T18:28:38;100156.56;;;31.05;34.57
46199;BME280;31928;52.104;10.030;2022-08-19T18:31:15;100154.03;;;31.00;34.90
46199;BME280;31928;52.104;10.030;2022-08-19T18:33:43;100149.88;;;30.94;34.06
46199;BME280;31928;52.104;10.030;2022-08-19T18:36:10;100147.34;;;30.89;33.97
46199;BME280;31928;52.104;10.030;2022-08-19T18:38:37;100161.47;;;30.84;34.65
46199;BME280;31928;52.104;10.030;2022-08-19T18:41:23;100157.44;;;30.82;34.60
46199;BME280;31928;52.104;10.030;2022-08-19T18:44:08;100158.03;;;30.75;34.56
46199;BME280;31928;52.104;10.030;2022-08-19T18:46:54;100166.44;;;30.67;33.75
46199;BME280;31928;52.104;10.030;2022-08-19T18:49:39;100161.50;;;30.60;33.00